Time;durP1;ratioP1;P1;durP2;ratioP2;P2;SDS_P1;SDS_P2;PMS_P1;PMS_P2;Temp;Humidity;BMP_temperature;BMP_pressure;BME280_temperature;BME280_humidity;BME280_pressure;Samples;Min_cycle;Max_cycle;Signal;HPM_P1;HPM_P2
2023/06/21 00:00:45;;;;;;;10.73;9.70;;;21.10;99.90;;;;;;5007664;28;20513;-71
2023/06/21 00:03:11;;;;;;;10.87;9.90;;;21.20;99.90;;;;;;5008111;28;20198;-71
2023/06/21 00:05:40;;;;;;;10.87;9.33;;;21.20;99.90;;;;;;5008844;28;20195;-71
2023/06/21 00:08:06;;;;;;;10.03;9.10;;;21.20;99.90;;;;;;5008950;28;20481;-71
2023/06/21 00:10:32;;;;;;;10.37;9.37;;;21.10;99.90;;;;;;5008831;28;21041;-71
2023/06/21 00:12:58;;;;;;;10.40;9.27;;;21.10;99.90;;;;;;5007191;28;20414;-71
2023/06/21 00:15:24;;;;;;;11.00;10.10;;;21.10;99.90;;;;;;5008918;28;20407;-71
2023/06/21 00:17:51;;;;;;;10.00;9.10;;;21.00;99.90;;;;;;5008950;28;20791;-71
2023/06/21 00:20:17;;;;;;;8.73;7.93;;;20.90;99.90;;;;;;5008940;28;20534;-71
2023/06/21 00:22:46;;;;;;;7.70;6.90;;;21.00;99.90;;;;;;5007077;28;20423;-71
2023/06/21 00:25:13;;;;;;;8.07;7.23;;;20.90;99.90;;;;;;5008583;28;20418;-71
2023/06/21 00:27:39;;;;;;;7.97;7.17;;;20.90;99.90;;;;;;5026507;28;21028;-71
2023/06/21 00:30:06;;;;;;;7.40;6.63;;;20.90;99.90;;;;;;5047113;28;20602;-71
2023/06/21 00:32:31;;;;;;;7.20;6.53;;;20.80;99.90;;;;;;5048384;28;20828;-71
2023/06/21 00:34:57;;;;;;;7.60;6.90;;;20.70;99.90;;;;;;5050297;28;20412;-72
2023/06/21 00:37:26;;;;;;;6.00;5.50;;;20.70;99.90;;;;;;5052725;28;20177;-71
2023/06/21 00:39:52;;;;;;;6.63;6.03;;;20.70;99.90;;;;;;5052231;28;20432;-71
2023/06/21 00:42:18;;;;;;;5.60;4.93;;;20.70;99.90;;;;;;5050325;28;20424;-71
2023/06/21 00:44:43;;;;;;;5.17;4.70;;;20.70;99.90;;;;;;5035892;28;20850;-71
2023/06/21 00:47:09;;;;;;;6.40;5.80;;;20.70;99.90;;;;;;5032151;28;20269;-71
2023/06/21 00:49:35;;;;;;;6.73;6.13;;;20.60;99.90;;;;;;5031767;28;20210;-71
2023/06/21 00:52:02;;;;;;;6.20;5.70;;;20.50;99.90;;;;;;5031313;28;20181;-71
2023/06/21 00:54:35;;;;;;;7.27;6.57;;;20.40;99.90;;;;;;5031517;28;20456;-71
2023/06/21 00:57:03;;;;;;;5.43;4.97;;;20.30;99.90;;;;;;5031935;28;20773;-71
2023/06/21 00:59:29;;;;;;;6.57;5.93;;;20.20;99.90;;;;;;5031693;28;20472;-71
2023/06/21 01:02:00;;;;;;;6.27;5.67;;;20.20;99.90;;;;;;5031073;28;20417;-71
2023/06/21 01:04:28;;;;;;;7.13;6.43;;;20.00;99.90;;;;;;5031263;28;20441;-71
2023/06/21 01:07:31;;;;;;;6.87;6.23;;;19.90;99.90;;;;;;5031550;28;20417;-71
2023/06/21 01:10:21;;;;;;;6.90;6.30;;;19.90;99.90;;;;;;5031442;28;20461;-71
2023/06/21 01:12:47;;;;;;;7.73;7.00;;;19.90;99.90;;;;;;5029615;28;20466;-72
2023/06/21 01:15:15;;;;;;;8.97;7.07;;;19.80;99.90;;;;;;5031237;28;20408;-71
2023/06/21 01:17:44;;;;;;;7.33;6.73;;;19.70;99.90;;;;;;5031465;28;20178;-71
2023/06/21 01:20:18;;;;;;;7.73;7.00;;;19.80;99.90;;;;;;5031322;28;20456;-72
2023/06/21 01:23:02;;;;;;;7.43;6.73;;;19.90;99.90;;;;;;5030737;28;20417;-71
2023/06/21 01:25:47;;;;;;;7.17;6.57;;;20.00;99.90;;;;;;5031247;28;20940;-72
2023/06/21 01:28:37;;;;;;;7.67;6.97;;;20.00;99.90;;;;;;5044513;28;20470;-71
2023/06/21 01:31:05;;;;;;;7.80;6.93;;;20.10;99.90;;;;;;5051144;28;20432;-71
2023/06/21 01:33:31;;;;;;;7.83;6.00;;;20.10;99.90;;;;;;5050090;28;20415;-71
2023/06/21 01:35:58;;;;;;;7.10;6.50;;;20.10;99.90;;;;;;5051041;28;20419;-71
2023/06/21 01:38:24;;;;;;;7.17;6.20;;;20.10;99.90;;;;;;5050967;28;20478;-72
2023/06/21 01:40:50;;;;;;;6.23;5.63;;;20.10;99.90;;;;;;5050986;28;20424;-71
2023/06/21 01:43:17;;;;;;;7.50;6.63;;;20.00;99.90;;;;;;5045839;28;20190;-72
2023/06/21 01:45:44;;;;;;;6.93;6.20;;;20.00;99.90;;;;;;5029844;28;20479;-72
2023/06/21 01:48:09;;;;;;;6.80;6.20;;;20.00;99.90;;;;;;5030827;28;20452;-71
2023/06/21 01:50:37;;;;;;;6.70;6.00;;;20.00;99.90;;;;;;5030640;28;20496;-72
2023/06/21 01:53:05;;;;;;;7.23;6.53;;;20.00;99.90;;;;;;5029931;28;20292;-72
2023/06/21 01:55:32;;;;;;;6.63;6.03;;;20.00;99.90;;;;;;5030535;28;20925;-72
2023/06/21 01:57:58;;;;;;;6.63;5.93;;;19.90;99.90;;;;;;5029542;28;20413;-72
2023/06/21 02:00:25;;;;;;;5.90;5.30;;;19.90;99.90;;;;;;5030524;28;20973;-72
2023/06/21 02:03:03;;;;;;;6.63;6.03;;;19.90;99.90;;;;;;5029893;28;20635;-71
2023/06/21 02:05:31;;;;;;;6.50;5.90;;;19.90;99.90;;;;;;5030390;28;20440;-72
2023/06/21 02:07:58;;;;;;;7.00;6.30;;;19.90;99.90;;;;;;5029220;28;20779;-71
2023/06/21 02:10:25;;;;;;;6.10;5.50;;;19.90;99.90;;;;;;5029144;28;20483;-72
2023/06/21 02:12:54;;;;;;;6.50;5.90;;;19.80;99.90;;;;;;5028927;28;20425;-71
2023/06/21 02:15:19;;;;;;;5.90;5.40;;;19.80;99.90;;;;;;5030062;28;20457;-72
2023/06/21 02:17:49;;;;;;;6.67;6.03;;;19.80;99.90;;;;;;5030512;28;21025;-71
2023/06/21 02:20:16;;;;;;;7.73;5.90;;;19.80;99.90;;;;;;5030218;28;20229;-71
2023/06/21 02:22:43;;;;;;;7.13;6.33;;;19.80;99.90;;;;;;5029500;28;20789;-71
2023/06/21 02:25:13;;;;;;;6.43;5.90;;;19.80;99.90;;;;;;5029817;28;20842;-71
2023/06/21 02:27:39;;;;;;;6.80;6.10;;;19.80;99.90;;;;;;5038807;28;20420;-71
2023/06/21 02:30:07;;;;;;;6.80;6.20;;;19.80;99.90;;;;;;5048369;28;20464;-71
2023/06/21 02:32:34;;;;;;;7.73;5.83;;;19.80;99.90;;;;;;5049234;28;20482;-71
2023/06/21 02:34:59;;;;;;;6.77;6.10;;;19.80;99.90;;;;;;5049691;28;20429;-71
2023/06/21 02:37:28;;;;;;;6.73;5.93;;;19.70;99.90;;;;;;5049811;28;20428;-71
2023/06/21 02:39:55;;;;;;;7.27;6.57;;;19.70;99.90;;;;;;5049743;28;20189;-71
2023/06/21 02:42:20;;;;;;;7.40;6.73;;;19.70;99.90;;;;;;5048994;28;20757;-71
2023/06/21 02:44:46;;;;;;;7.20;6.50;;;19.60;99.90;;;;;;5031889;28;20425;-71
2023/06/21 02:47:12;;;;;;;7.17;6.47;;;19.60;99.90;;;;;;5029620;28;20265;-72
2023/06/21 02:49:38;;;;;;;7.33;6.67;;;19.60;99.90;;;;;;5029746;28;20214;-72
2023/06/21 02:52:04;;;;;;;7.60;6.50;;;19.60;99.90;;;;;;5029025;28;20547;-72
2023/06/21 02:54:30;;;;;;;8.33;6.30;;;19.60;99.90;;;;;;5029311;28;20448;-72
2023/06/21 02:56:56;;;;;;;6.27;5.67;;;19.60;99.90;;;;;;5029086;28;20445;-72
2023/06/21 02:59:23;;;;;;;7.83;6.60;;;19.60;99.90;;;;;;5029363;28;20441;-72
2023/06/21 03:01:49;;;;;;;6.77;6.00;;;19.60;99.90;;;;;;5027453;28;20828;-71
2023/06/21 03:04:16;;;;;;;7.23;6.50;;;19.60;99.90;;;;;;5028889;28;20437;-72
2023/06/21 03:06:42;;;;;;;7.70;6.90;;;19.60;99.90;;;;;;5029299;28;20928;-73
2023/06/21 03:09:08;;;;;;;7.97;6.83;;;19.60;99.90;;;;;;5029250;28;20461;-72
2023/06/21 03:11:34;;;;;;;6.70;6.10;;;19.60;99.90;;;;;;5027479;28;21030;-72
2023/06/21 03:13:59;;;;;;;7.83;6.90;;;19.50;99.90;;;;;;5028919;28;20770;-72
2023/06/21 03:16:25;;;;;;;6.87;6.07;;;19.50;99.90;;;;;;5029158;28;20182;-71
2023/06/21 03:18:51;;;;;;;7.63;6.93;;;19.50;99.90;;;;;;5029125;28;20194;-71
2023/06/21 03:21:16;;;;;;;6.50;5.90;;;19.60;99.90;;;;;;5028764;28;20174;-70
2023/06/21 03:23:43;;;;;;;7.80;7.00;;;19.60;99.90;;;;;;5028710;28;20183;-72
2023/06/21 03:26:09;;;;;;;6.80;6.20;;;19.50;99.90;;;;;;5029181;28;20182;-72
2023/06/21 03:28:35;;;;;;;7.30;6.60;;;19.50;99.90;;;;;;5045336;28;20444;-72
2023/06/21 03:31:00;;;;;;;7.60;6.80;;;19.50;99.90;;;;;;5047362;28;20188;-72
2023/06/21 03:33:27;;;;;;;7.20;6.30;;;19.50;99.90;;;;;;5046889;28;20266;-71
2023/06/21 03:35:52;;;;;;;8.30;6.63;;;19.50;99.90;;;;;;5048863;28;20187;-71
2023/06/21 03:38:19;;;;;;;6.93;6.03;;;19.50;99.90;;;;;;5048787;28;20499;-72
2023/06/21 03:40:45;;;;;;;7.90;7.10;;;19.50;99.90;;;;;;5048766;28;20201;-71
2023/06/21 03:43:11;;;;;;;7.00;6.30;;;19.40;99.90;;;;;;5044796;28;20417;-71
2023/06/21 03:45:36;;;;;;;6.83;6.20;;;19.40;99.90;;;;;;5028793;28;20416;-72
2023/06/21 03:48:05;;;;;;;7.47;6.80;;;19.50;99.90;;;;;;5029239;28;20175;-72
2023/06/21 03:50:32;;;;;;;7.13;6.43;;;19.50;99.90;;;;;;5028672;28;20237;-71
2023/06/21 03:52:57;;;;;;;7.47;6.60;;;19.50;99.90;;;;;;5026866;28;20405;-74
2023/06/21 03:55:23;;;;;;;7.20;6.60;;;19.50;99.90;;;;;;5028499;28;20479;-72
2023/06/21 03:57:49;;;;;;;8.73;6.57;;;19.40;99.90;;;;;;5028655;28;20515;-71
2023/06/21 04:00:15;;;;;;;6.83;6.13;;;19.50;99.90;;;;;;5028585;28;20202;-71
2023/06/21 04:02:41;;;;;;;6.83;6.13;;;19.50;99.90;;;;;;5027979;28;20233;-72
2023/06/21 04:05:10;;;;;;;6.77;6.17;;;19.50;99.90;;;;;;5028382;28;20437;-72
2023/06/21 04:07:36;;;;;;;13.13;7.30;;;19.50;99.90;;;;;;5028553;28;20209;-70
2023/06/21 04:10:02;;;;;;;7.13;6.43;;;19.50;99.90;;;;;;5030556;28;20465;-71
2023/06/21 04:12:28;;;;;;;6.97;6.23;;;19.40;99.90;;;;;;5032047;28;20409;-71
2023/06/21 04:14:55;;;;;;;7.20;6.50;;;19.50;99.90;;;;;;5032138;28;20212;-71
2023/06/21 04:17:20;;;;;;;7.90;7.10;;;19.50;99.90;;;;;;5032490;28;20505;-72
2023/06/21 04:19:46;;;;;;;7.73;7.03;;;19.40;99.90;;;;;;5031508;28;21067;-72
2023/06/21 04:22:12;;;;;;;8.00;6.70;;;19.40;99.90;;;;;;5031554;28;20182;-72
2023/06/21 04:24:38;;;;;;;7.73;6.40;;;19.50;99.90;;;;;;5031886;28;20409;-72
2023/06/21 04:27:05;;;;;;;7.67;6.87;;;19.50;99.90;;;;;;5036149;28;20177;-72
2023/06/21 04:29:34;;;;;;;8.00;7.20;;;19.50;99.90;;;;;;5050527;28;20586;-72
2023/06/21 04:31:59;;;;;;;9.40;6.87;;;19.50;99.90;;;;;;5051317;28;20413;-72
2023/06/21 04:34:27;;;;;;;7.83;7.13;;;19.60;99.90;;;;;;5051703;28;20485;-72
2023/06/21 04:36:53;;;;;;;7.77;7.07;;;19.60;99.90;;;;;;5052141;28;20533;-72
2023/06/21 04:39:20;;;;;;;7.50;6.20;;;19.70;99.90;;;;;;5051879;28;20428;-72
2023/06/21 04:41:46;;;;;;;8.23;7.07;;;19.70;99.90;;;;;;5050163;28;20182;-72
2023/06/21 04:44:13;;;;;;;8.30;7.50;;;19.70;99.90;;;;;;5039951;28;20767;-72
2023/06/21 04:46:38;;;;;;;6.70;6.00;;;19.80;99.90;;;;;;5026443;28;20977;-71
2023/06/21 04:49:05;;;;;;;7.10;6.50;;;19.80;99.90;;;;;;5025991;28;20465;-71
2023/06/21 04:51:31;;;;;;;8.00;6.60;;;19.90;99.90;;;;;;5026821;28;20191;-71
2023/06/21 04:54:00;;;;;;;8.07;7.23;;;19.90;99.90;;;;;;5029153;28;20516;-71
2023/06/21 04:56:27;;;;;;;7.77;7.07;;;19.90;99.90;;;;;;5026870;28;20473;-71
2023/06/21 04:58:52;;;;;;;8.33;7.40;;;19.90;99.90;;;;;;5030439;28;20429;-71
2023/06/21 05:01:18;;;;;;;8.37;7.57;;;19.90;99.90;;;;;;5030945;28;20413;-72
2023/06/21 05:03:48;;;;;;;8.83;7.00;;;19.90;99.90;;;;;;5030872;28;20674;-71
2023/06/21 05:06:14;;;;;;;7.90;7.10;;;20.00;99.90;;;;;;5029768;28;20189;-71
2023/06/21 05:08:43;;;;;;;9.23;7.00;;;20.00;99.90;;;;;;5027310;28;21237;-72
2023/06/21 05:11:09;;;;;;;9.83;7.80;;;20.00;99.90;;;;;;5031077;28;20488;-71
2023/06/21 05:13:35;;;;;;;8.67;7.77;;;20.20;99.90;;;;;;5030729;28;20552;-72
2023/06/21 05:16:01;;;;;;;11.47;8.20;;;20.20;99.90;;;;;;5031378;28;20181;-71
2023/06/21 05:18:26;;;;;;;7.90;7.17;;;20.40;99.90;;;;;;5031227;28;20273;-71
2023/06/21 05:20:52;;;;;;;7.90;7.10;;;20.50;99.90;;;;;;5031049;28;20701;-72
2023/06/21 05:23:17;;;;;;;9.13;8.20;;;20.50;99.90;;;;;;5030251;28;20362;-72
2023/06/21 05:25:43;;;;;;;8.50;7.47;;;20.60;99.90;;;;;;5030936;28;20193;-72
2023/06/21 05:28:09;;;;;;;8.80;8.00;;;20.70;99.90;;;;;;5031045;28;20723;-72
2023/06/21 05:30:35;;;;;;;10.80;8.70;;;20.90;99.90;;;;;;5031219;28;20568;-71
2023/06/21 05:33:01;;;;;;;8.33;7.57;;;20.90;99.90;;;;;;5027973;28;20466;-71
2023/06/21 05:35:26;;;;;;;8.40;7.60;;;21.10;99.90;;;;;;5030854;28;20233;-71
2023/06/21 05:37:53;;;;;;;7.97;6.93;;;21.20;99.90;;;;;;5030954;28;20241;-72
2023/06/21 05:40:20;;;;;;;8.60;7.30;;;21.30;99.90;;;;;;5030918;28;20229;-72
2023/06/21 05:42:45;;;;;;;8.00;7.20;;;21.40;99.90;;;;;;5030239;28;20925;-71
2023/06/21 05:45:11;;;;;;;9.20;8.03;;;21.50;99.90;;;;;;5027629;28;20502;-71
2023/06/21 05:47:37;;;;;;;8.80;7.87;;;21.60;99.90;;;;;;5029099;28;20722;-71
2023/06/21 05:50:03;;;;;;;11.53;8.43;;;21.70;99.90;;;;;;5030367;28;20210;-71
2023/06/21 05:52:29;;;;;;;9.17;8.20;;;21.70;99.90;;;;;;5030069;28;20175;-72
2023/06/21 05:54:55;;;;;;;12.03;8.30;;;21.90;99.90;;;;;;5030345;28;20493;-72
2023/06/21 05:57:21;;;;;;;8.10;7.30;;;21.90;99.90;;;;;;5029712;28;20496;-71
2023/06/21 05:59:47;;;;;;;8.20;7.33;;;22.10;99.90;;;;;;5030524;28;20230;-72
2023/06/21 06:02:13;;;;;;;8.70;7.73;;;22.20;99.90;;;;;;5029872;28;20948;-71
2023/06/21 06:04:39;;;;;;;8.67;7.50;;;22.20;99.90;;;;;;5028104;28;20541;-71
2023/06/21 06:07:05;;;;;;;9.57;8.57;;;22.30;99.90;;;;;;5026322;28;20186;-72
2023/06/21 06:09:31;;;;;;;9.10;7.63;;;22.30;99.90;;;;;;5027136;28;20468;-71
2023/06/21 06:11:57;;;;;;;11.27;8.40;;;22.40;99.90;;;;;;5028679;28;20413;-71
2023/06/21 06:14:26;;;;;;;8.73;7.10;;;22.50;99.90;;;;;;5028365;28;20480;-71
2023/06/21 06:16:51;;;;;;;9.13;8.23;;;22.60;99.90;;;;;;5027589;28;21178;-72
2023/06/21 06:19:17;;;;;;;9.23;8.33;;;22.70;99.90;;;;;;5029949;28;20499;-71
2023/06/21 06:21:44;;;;;;;9.37;8.50;;;22.70;99.90;;;;;;5023314;28;20186;-72
2023/06/21 06:24:10;;;;;;;9.57;7.90;;;22.70;99.90;;;;;;5025749;28;20566;-72
2023/06/21 06:26:36;;;;;;;10.40;8.00;;;22.90;99.90;;;;;;5026952;28;20491;-70
2023/06/21 06:29:02;;;;;;;9.10;8.17;;;23.00;99.90;;;;;;5027315;28;20210;-71
2023/06/21 06:31:29;;;;;;;8.17;7.37;;;23.10;99.90;;;;;;5027333;28;21164;-70
2023/06/21 06:33:55;;;;;;;9.43;8.43;;;23.20;99.90;;;;;;5021393;28;20194;-71
2023/06/21 06:36:21;;;;;;;8.47;7.60;;;23.30;99.90;;;;;;5008544;28;20772;-71
2023/06/21 06:38:50;;;;;;;9.03;8.20;;;23.40;99.90;;;;;;5010087;28;20195;-71
2023/06/21 06:41:17;;;;;;;8.40;7.70;;;23.60;99.90;;;;;;5009589;28;20595;-72
2023/06/21 06:43:43;;;;;;;8.93;8.07;;;23.70;99.90;;;;;;5016718;28;20436;-71
2023/06/21 06:46:09;;;;;;;8.73;7.53;;;23.70;99.90;;;;;;5029680;28;21026;-72
2023/06/21 06:48:35;;;;;;;10.03;8.83;;;23.80;99.90;;;;;;5029491;28;20918;-70
2023/06/21 06:51:01;;;;;;;8.97;8.10;;;23.80;99.90;;;;;;5029575;28;20498;-71
2023/06/21 06:53:27;;;;;;;12.90;8.70;;;23.80;99.90;;;;;;5028637;28;20179;-70
2023/06/21 06:55:54;;;;;;;9.50;8.60;;;23.80;99.90;;;;;;5029520;28;20175;-70
2023/06/21 06:58:21;;;;;;;8.70;7.90;;;24.00;99.90;;;;;;5029468;28;20179;-70
2023/06/21 07:00:47;;;;;;;8.33;7.63;;;24.10;99.90;;;;;;5029655;28;20809;-70
2023/06/21 07:03:13;;;;;;;8.53;7.73;;;24.10;99.90;;;;;;5028448;28;20471;-70
2023/06/21 07:05:57;;;;;;;9.60;8.80;;;24.00;99.90;;;;;;5029298;28;20525;-71
2023/06/21 07:08:23;;;;;;;9.23;8.33;;;23.90;99.90;;;;;;5029105;28;20413;-71
2023/06/21 07:10:48;;;;;;;10.23;8.57;;;23.80;99.90;;;;;;5029304;28;20563;-69
2023/06/21 07:13:14;;;;;;;9.50;8.70;;;23.70;99.90;;;;;;5027781;28;20197;-68
2023/06/21 07:15:40;;;;;;;9.33;8.43;;;23.50;99.90;;;;;;5029207;28;20181;-71
2023/06/21 07:18:05;;;;;;;9.03;7.90;;;23.40;99.90;;;;;;5029264;28;20299;-71
2023/06/21 07:20:31;;;;;;;10.00;8.40;;;23.40;99.90;;;;;;5029039;28;20199;-70
2023/06/21 07:22:57;;;;;;;8.30;7.60;;;23.40;99.90;;;;;;5028617;28;20224;-71
2023/06/21 07:25:23;;;;;;;9.37;8.33;;;23.50;99.90;;;;;;5028843;28;20178;-71
2023/06/21 07:27:49;;;;;;;9.30;8.47;;;23.50;99.90;;;;;;5037580;28;20181;-70
2023/06/21 07:30:16;;;;;;;10.07;9.17;;;23.50;99.90;;;;;;5048660;28;20517;-70
2023/06/21 07:32:42;;;;;;;9.97;9.17;;;23.40;99.90;;;;;;5048008;28;20770;-71
2023/06/21 07:35:08;;;;;;;11.00;9.87;;;23.40;99.90;;;;;;5048400;28;20412;-70
2023/06/21 07:37:34;;;;;;;11.13;8.97;;;23.30;99.90;;;;;;5048848;28;20173;-70
2023/06/21 07:40:00;;;;;;;9.60;8.80;;;23.20;99.90;;;;;;5048619;28;20432;-71
2023/06/21 07:42:26;;;;;;;9.07;8.17;;;23.30;99.90;;;;;;5048121;28;20478;-71
2023/06/21 07:44:53;;;;;;;10.20;9.30;;;23.40;99.90;;;;;;5030629;28;20424;-70
2023/06/21 07:47:19;;;;;;;11.27;9.40;;;23.50;99.90;;;;;;5028189;28;20189;-70
2023/06/21 07:49:45;;;;;;;9.97;8.50;;;23.60;99.90;;;;;;5028631;28;20465;-70
2023/06/21 07:52:11;;;;;;;10.47;9.47;;;23.80;99.90;;;;;;5028185;28;20183;-71
2023/06/21 07:54:37;;;;;;;11.13;10.20;;;23.80;99.90;;;;;;5028467;28;20182;-70
2023/06/21 07:57:03;;;;;;;12.03;10.50;;;23.70;99.90;;;;;;5027821;28;20405;-70
2023/06/21 07:59:30;;;;;;;10.93;9.93;;;23.50;99.90;;;;;;5028597;28;20735;-70
2023/06/21 08:01:55;;;;;;;10.83;9.93;;;23.40;99.90;;;;;;5027918;28;20504;-71
2023/06/21 08:04:21;;;;;;;11.53;10.43;;;23.50;99.90;;;;;;5028175;28;20532;-70
2023/06/21 08:06:47;;;;;;;11.87;10.80;;;23.60;99.90;;;;;;5027357;28;20198;-71
2023/06/21 08:09:12;;;;;;;12.47;11.37;;;23.70;99.90;;;;;;5027160;28;20628;-71
2023/06/21 08:11:38;;;;;;;12.17;10.40;;;23.80;99.90;;;;;;5027973;28;20236;-71
2023/06/21 08:14:04;;;;;;;10.87;9.87;;;23.80;99.90;;;;;;5028406;28;20166;-70
2023/06/21 08:16:30;;;;;;;9.70;8.90;;;23.90;99.90;;;;;;5028392;28;20174;-71
2023/06/21 08:18:56;;;;;;;11.10;10.10;;;24.00;99.90;;;;;;5028431;28;20194;-70
2023/06/21 08:21:21;;;;;;;12.73;11.10;;;24.00;99.90;;;;;;5027894;28;20440;-71
2023/06/21 08:23:47;;;;;;;10.13;9.20;;;23.90;99.90;;;;;;5028191;28;20210;-71
2023/06/21 08:26:13;;;;;;;10.73;9.83;;;23.80;99.90;;;;;;5028507;28;20175;-70
2023/06/21 08:28:38;;;;;;;11.60;10.30;;;23.90;99.90;;;;;;5044057;28;20202;-70
2023/06/21 08:31:04;;;;;;;10.40;9.50;;;23.80;99.90;;;;;;5048075;28;20210;-71
2023/06/21 08:33:30;;;;;;;9.53;8.63;;;23.80;99.90;;;;;;5047468;28;20323;-71
2023/06/21 08:35:55;;;;;;;11.40;10.40;;;23.90;99.90;;;;;;5048397;28;20205;-70
2023/06/21 08:38:21;;;;;;;10.03;9.20;;;24.00;99.90;;;;;;5048104;28;20322;-70
2023/06/21 08:40:47;;;;;;;12.83;9.37;;;24.10;99.90;;;;;;5048271;28;20265;-70
2023/06/21 08:43:13;;;;;;;10.77;9.97;;;24.20;99.90;;;;;;5044043;28;20182;-70
2023/06/21 08:45:39;;;;;;;10.77;9.40;;;24.40;99.90;;;;;;5028462;28;20968;-70
2023/06/21 08:48:06;;;;;;;9.47;8.60;;;24.50;99.90;;;;;;5028184;28;20182;-70
2023/06/21 08:50:36;;;;;;;10.30;9.40;;;24.60;99.90;;;;;;5028173;28;21099;-70
2023/06/21 08:53:06;;;;;;;10.77;9.87;;;24.60;99.90;;;;;;5027230;28;20524;-70
2023/06/21 08:55:35;;;;;;;10.17;9.30;;;24.60;99.90;;;;;;5029362;28;20424;-70
2023/06/21 08:58:12;;;;;;;11.30;10.13;;;24.70;99.90;;;;;;5030673;28;20504;-70
2023/06/21 09:00:43;;;;;;;11.50;9.77;;;24.80;99.90;;;;;;5032016;28;20939;-70
2023/06/21 09:03:23;;;;;;;9.97;9.10;;;24.80;99.90;;;;;;5030727;28;20417;-70
2023/06/21 09:05:55;;;;;;;10.23;9.33;;;25.00;99.90;;;;;;5031816;28;20510;-70
2023/06/21 09:08:21;;;;;;;9.40;8.40;;;25.10;99.90;;;;;;5031360;28;20474;-71
2023/06/21 09:10:48;;;;;;;13.00;10.73;;;25.30;99.90;;;;;;5031691;28;20457;-71
2023/06/21 09:13:14;;;;;;;11.83;10.63;;;25.30;99.90;;;;;;5030607;28;20475;-71
2023/06/21 09:15:41;;;;;;;10.43;9.53;;;25.20;99.90;;;;;;5031933;28;20417;-70
2023/06/21 09:18:07;;;;;;;11.37;10.30;;;25.00;99.90;;;;;;5031848;28;20602;-71
2023/06/21 09:20:33;;;;;;;12.30;10.37;;;25.10;99.90;;;;;;5031518;28;20464;-71
2023/06/21 09:22:59;;;;;;;10.90;9.90;;;25.10;99.90;;;;;;5030713;28;20819;-70
2023/06/21 09:25:26;;;;;;;10.80;9.33;;;25.20;99.90;;;;;;5031171;28;20968;-71
2023/06/21 09:27:53;;;;;;;9.97;8.97;;;25.30;99.90;;;;;;5041681;28;20427;-71
2023/06/21 09:30:19;;;;;;;9.87;8.93;;;25.40;99.90;;;;;;5051085;28;20492;-71
2023/06/21 09:32:46;;;;;;;10.87;8.53;;;25.50;99.90;;;;;;5050296;28;20474;-71
2023/06/21 09:35:13;;;;;;;9.20;8.03;;;25.60;99.90;;;;;;5050906;28;20459;-71
2023/06/21 09:37:39;;;;;;;8.77;7.90;;;25.70;99.90;;;;;;5051029;28;20519;-71
2023/06/21 09:40:06;;;;;;;8.53;7.83;;;25.80;99.90;;;;;;5050932;28;20776;-71
2023/06/21 09:42:37;;;;;;;8.30;7.50;;;25.90;99.90;;;;;;5050150;28;20531;-70
2023/06/21 09:45:07;;;;;;;8.50;7.70;;;26.00;99.90;;;;;;5032177;28;20479;-71
2023/06/21 09:47:33;;;;;;;7.87;7.17;;;26.10;99.90;;;;;;5031111;28;20409;-71
2023/06/21 09:49:59;;;;;;;9.10;8.30;;;26.20;99.90;;;;;;5031110;28;20464;-71
2023/06/21 09:52:26;;;;;;;7.50;6.80;;;26.20;99.90;;;;;;5030140;28;20179;-71
2023/06/21 09:54:55;;;;;;;8.23;7.07;;;26.10;99.90;;;;;;5030741;28;20178;-71
2023/06/21 09:57:27;;;;;;;9.00;8.17;;;26.00;99.90;;;;;;5029875;28;20418;-71
2023/06/21 09:59:53;;;;;;;9.17;8.37;;;25.80;99.90;;;;;;5029783;28;20449;-71
2023/06/21 10:02:18;;;;;;;8.40;7.70;;;25.70;99.90;;;;;;5028924;28;20520;-71
2023/06/21 10:04:44;;;;;;;8.43;7.83;;;25.70;99.90;;;;;;5030514;28;20206;-71
2023/06/21 10:07:14;;;;;;;10.43;7.30;;;25.80;99.90;;;;;;5029965;28;20596;-71
2023/06/21 10:09:41;;;;;;;8.23;7.50;;;25.90;99.90;;;;;;5030890;28;20471;-71
2023/06/21 10:12:11;;;;;;;7.23;6.60;;;26.00;99.90;;;;;;5029986;28;20517;-71
2023/06/21 10:14:36;;;;;;;7.53;6.83;;;26.10;99.90;;;;;;5030475;28;20405;-71
2023/06/21 10:17:03;;;;;;;8.20;7.50;;;26.10;99.90;;;;;;5030513;28;20416;-71
2023/06/21 10:19:29;;;;;;;8.13;7.43;;;26.00;99.90;;;;;;5030907;28;20289;-70
2023/06/21 10:22:08;;;;;;;7.53;6.60;;;25.90;99.90;;;;;;5030029;28;20424;-71
2023/06/21 10:24:40;;;;;;;7.10;6.40;;;25.80;99.90;;;;;;5030022;28;20467;-70
2023/06/21 10:27:06;;;;;;;6.97;6.30;;;25.70;99.90;;;;;;5034193;28;21159;-70
2023/06/21 10:29:33;;;;;;;7.40;6.80;;;25.70;99.90;;;;;;5050456;28;20987;-71
2023/06/21 10:32:00;;;;;;;8.03;7.27;;;25.70;99.90;;;;;;5049371;28;20512;-71
2023/06/21 10:34:30;;;;;;;9.23;6.93;;;25.80;99.90;;;;;;5049856;28;20781;-70
2023/06/21 10:37:06;;;;;;;8.27;7.47;;;26.00;99.90;;;;;;5035469;28;20571;-70
2023/06/21 10:39:34;;;;;;;8.40;7.70;;;26.20;99.90;;;;;;5026548;28;20460;-71
2023/06/21 10:42:02;;;;;;;8.90;8.13;;;26.40;99.90;;;;;;5028700;28;20425;-71
2023/06/21 10:44:29;;;;;;;7.87;7.17;;;26.50;99.90;;;;;;5029135;28;20433;-70
2023/06/21 10:46:57;;;;;;;8.67;7.80;;;26.70;99.90;;;;;;5029585;28;20421;-71
2023/06/21 10:49:25;;;;;;;7.67;7.07;;;26.90;99.90;;;;;;5029485;28;20539;-70
2023/06/21 10:51:52;;;;;;;8.27;7.57;;;27.00;99.90;;;;;;5027708;28;20467;-70
2023/06/21 10:54:19;;;;;;;9.13;8.33;;;27.00;99.90;;;;;;5029070;28;20425;-70
2023/06/21 10:56:45;;;;;;;8.83;7.93;;;27.00;99.90;;;;;;5028321;28;20504;-71
2023/06/21 10:59:11;;;;;;;10.03;8.27;;;26.90;99.90;;;;;;5029421;28;20437;-70
2023/06/21 11:01:37;;;;;;;8.30;7.60;;;26.70;99.90;;;;;;5027677;28;20961;-71
2023/06/21 11:04:04;;;;;;;7.50;6.90;;;26.70;99.90;;;;;;5028698;28;20432;-71
2023/06/21 11:06:34;;;;;;;7.70;7.07;;;26.70;99.90;;;;;;5029342;28;20428;-71
2023/06/21 11:09:16;;;;;;;8.10;7.30;;;26.80;99.90;;;;;;5029141;28;20488;-70
2023/06/21 11:11:52;;;;;;;8.60;7.87;;;26.90;99.90;;;;;;5027503;28;20503;-71
2023/06/21 11:14:31;;;;;;;7.40;6.70;;;27.00;99.90;;;;;;5027569;28;20838;-70
2023/06/21 11:17:12;;;;;;;7.43;6.83;;;27.20;99.90;;;;;;5021646;28;20474;-71
2023/06/21 11:19:38;;;;;;;6.63;6.13;;;27.20;99.90;;;;;;5028630;28;20440;-70
2023/06/21 11:22:15;;;;;;;5.50;5.10;;;27.20;99.90;;;;;;5028435;28;20443;-71
2023/06/21 11:24:50;;;;;;;6.73;6.13;;;27.20;99.90;;;;;;5027249;28;20475;-70
2023/06/21 11:27:15;;;;;;;8.10;7.50;;;27.30;99.90;;;;;;5032290;28;20411;-71
2023/06/21 11:29:41;;;;;;;9.03;8.33;;;27.30;99.90;;;;;;5028650;28;21045;-71
2023/06/21 11:32:08;;;;;;;8.60;7.90;;;27.40;99.90;;;;;;5028247;28;20187;-71
2023/06/21 11:34:33;;;;;;;7.97;7.30;;;27.40;99.90;;;;;;5028242;28;20429;-71
2023/06/21 11:37:35;;;;;;;8.80;8.00;;;27.40;99.90;;;;;;5028672;28;20921;-71
2023/06/21 11:40:02;;;;;;;8.87;8.27;;;27.40;99.90;;;;;;5014190;28;20202;-71
2023/06/21 11:42:45;;;;;;;8.63;8.03;;;27.40;99.90;;;;;;5028024;28;20421;-71
2023/06/21 11:45:32;;;;;;;7.47;5.97;;;27.40;99.90;;;;;;5028226;28;20524;-71
2023/06/21 11:48:05;;;;;;;7.07;6.47;;;27.40;99.40;;;;;;5021540;28;20421;-72
2023/06/21 11:50:36;;;;;;;6.87;6.30;;;27.50;98.60;;;;;;5028303;28;20471;-71
2023/06/21 11:53:26;;;;;;;6.57;6.03;;;27.50;99.10;;;;;;5026934;28;20421;-71
2023/06/21 11:55:54;;;;;;;7.17;6.30;;;27.60;99.90;;;;;;5020475;28;20478;-71
2023/06/21 11:58:20;;;;;;;7.10;6.50;;;27.60;99.70;;;;;;5026776;28;20412;-71
2023/06/21 12:00:46;;;;;;;7.90;7.20;;;27.70;99.90;;;;;;5028498;28;20436;-70
2023/06/21 12:03:14;;;;;;;8.83;7.83;;;27.70;99.90;;;;;;5027788;28;20421;-70
2023/06/21 12:05:52;;;;;;;8.23;7.53;;;27.60;98.80;;;;;;5027179;28;20536;-71
2023/06/21 12:08:19;;;;;;;8.13;7.53;;;27.60;99.50;;;;;;5028411;28;20502;-71
2023/06/21 12:10:46;;;;;;;8.27;7.57;;;27.60;99.90;;;;;;5028441;28;20468;-70
2023/06/21 12:13:19;;;;;;;8.50;7.80;;;27.50;99.70;;;;;;5027452;28;20436;-71
2023/06/21 12:15:46;;;;;;;7.83;7.30;;;27.60;99.90;;;;;;5027135;28;20431;-70
2023/06/21 12:18:14;;;;;;;8.37;7.67;;;27.50;99.50;;;;;;5027137;28;20431;-71
2023/06/21 12:20:40;;;;;;;8.30;7.60;;;27.50;99.50;;;;;;5028350;28;20441;-70
2023/06/21 12:23:09;;;;;;;9.40;8.70;;;27.50;99.90;;;;;;5027546;28;20429;-71
2023/06/21 12:25:42;;;;;;;9.13;8.40;;;27.60;99.90;;;;;;5028344;28;20432;-70
2023/06/21 12:28:08;;;;;;;9.70;9.00;;;27.70;99.90;;;;;;5028462;28;20417;-71
2023/06/21 12:30:53;;;;;;;8.83;8.13;;;27.80;99.90;;;;;;5029263;28;21259;-70
2023/06/21 12:33:22;;;;;;;8.97;8.27;;;27.90;99.90;;;;;;5025558;28;20551;-71
2023/06/21 12:35:48;;;;;;;8.87;8.07;;;27.90;99.20;;;;;;5031982;28;20444;-70
2023/06/21 12:38:15;;;;;;;7.93;7.40;;;27.80;98.90;;;;;;5031968;28;20775;-71
2023/06/21 12:40:59;;;;;;;7.87;7.17;;;27.80;99.40;;;;;;5029813;28;20832;-71
2023/06/21 12:43:34;;;;;;;8.20;7.50;;;27.80;99.10;;;;;;5027262;28;20898;-71
2023/06/21 12:46:02;;;;;;;7.10;6.50;;;27.80;98.10;;;;;;5031995;28;20424;-71
2023/06/21 12:48:27;;;;;;;7.50;6.90;;;27.80;97.20;;;;;;5031666;28;20470;-71